sensor_id;sensor_type;location;lat;lon;timestamp;temperature;humidity
68480;DHT22;55469;48.934;12.050;2024-01-15T00:00:16;-2.20;99.90
68480;DHT22;55469;48.934;12.050;2024-01-15T00:02:42;-2.20;99.90
68480;DHT22;55469;48.934;12.050;2024-01-15T00:05:08;-2.20;99.80
68480;DHT22;55469;48.934;12.050;2024-01-15T00:07:34;-2.20;99.90
68480;DHT22;55469;48.934;12.050;2024-01-15T00:10:00;-2.20;99.70
68480;DHT22;55469;48.934;12.050;2024-01-15T00:12:26;-2.20;99.80
68480;DHT22;55469;48.934;12.050;2024-01-15T00:14:52;-2.20;99.90
68480;DHT22;55469;48.934;12.050;2024-01-15T00:17:18;-2.20;99.90
68480;DHT22;55469;48.934;12.050;2024-01-15T00:19:44;-2.20;99.80
68480;DHT22;55469;48.934;12.050;2024-01-15T00:22:09;-2.20;99.80
68480;DHT22;55469;48.934;12.050;2024-01-15T00:24:35;-2.20;99.90
68480;DHT22;55469;48.934;12.050;2024-01-15T00:27:01;-2.20;99.80
68480;DHT22;55469;48.934;12.050;2024-01-15T00:29:26;-2.20;99.90
68480;DHT22;55469;48.934;12.050;2024-01-15T00:31:52;-2.20;99.90
68480;DHT22;55469;48.934;12.050;2024-01-15T00:34:17;-2.20;99.90
68480;DHT22;55469;48.934;12.050;2024-01-15T00:36:43;-2.30;99.80
68480;DHT22;55469;48.934;12.050;2024-01-15T00:39:09;-2.30;99.90
68480;DHT22;55469;48.934;12.050;2024-01-15T00:41:36;-2.30;99.90
68480;DHT22;55469;48.934;12.050;2024-01-15T00:44:01;-2.30;99.90
68480;DHT22;55469;48.934;12.050;2024-01-15T00:46:28;-2.20;99.90
68480;DHT22;55469;48.934;12.050;2024-01-15T00:48:54;-2.20;99.90
68480;DHT22;55469;48.934;12.050;2024-01-15T00:51:19;-2.20;99.90
68480;DHT22;55469;48.934;12.050;2024-01-15T00:53:45;-2.30;99.90
68480;DHT22;55469;48.934;12.050;2024-01-15T00:56:11;-2.30;99.90
68480;DHT22;55469;48.934;12.050;2024-01-15T00:58:36;-2.30;99.90
68480;DHT22;55469;48.934;12.050;2024-01-15T01:01:02;-2.20;99.90
68480;DHT22;55469;48.934;12.050;2024-01-15T01:03:28;-2.30;99.90
68480;DHT22;55469;48.934;12.050;2024-01-15T01:05:53;-2.20;99.90
68480;DHT22;55469;48.934;12.050;2024-01-15T01:08:19;-2.20;99.90
68480;DHT22;55469;48.934;12.050;2024-01-15T01:10:44;-2.20;99.90
68480;DHT22;55469;48.934;12.050;2024-01-15T01:13:10;-2.20;99.90
68480;DHT22;55469;48.934;12.050;2024-01-15T01:15:36;-2.30;99.90
68480;DHT22;55469;48.934;12.050;2024-01-15T01:18:02;-2.20;99.90
68480;DHT22;55469;48.934;12.050;2024-01-15T01:20:27;-2.20;99.90
68480;DHT22;55469;48.934;12.050;2024-01-15T01:22:53;-2.20;99.90
68480;DHT22;55469;48.934;12.050;2024-01-15T01:25:18;-2.20;99.90
68480;DHT22;55469;48.934;12.050;2024-01-15T01:27:44;-2.20;99.90
68480;DHT22;55469;48.934;12.050;2024-01-15T01:30:10;-2.20;99.90
68480;DHT22;55469;48.934;12.050;2024-01-15T01:32:35;-2.30;99.90
68480;DHT22;55469;48.934;12.050;2024-01-15T01:35:01;-2.20;99.90
68480;DHT22;55469;48.934;12.050;2024-01-15T01:37:27;-2.20;99.90
68480;DHT22;55469;48.934;12.050;2024-01-15T01:39:52;-2.20;99.90
68480;DHT22;55469;48.934;12.050;2024-01-15T01:42:18;-2.20;99.90
68480;DHT22;55469;48.934;12.050;2024-01-15T01:44:44;-2.20;99.90
68480;DHT22;55469;48.934;12.050;2024-01-15T01:47:09;-2.20;99.90
68480;DHT22;55469;48.934;12.050;2024-01-15T01:49:36;-2.20;99.90
68480;DHT22;55469;48.934;12.050;2024-01-15T01:52:02;-2.20;99.90
68480;DHT22;55469;48.934;12.050;2024-01-15T01:54:31;-2.20;99.90
68480;DHT22;55469;48.934;12.050;2024-01-15T01:56:57;-2.20;99.90
68480;DHT22;55469;48.934;12.050;2024-01-15T01:59:23;-2.20;99.90
68480;DHT22;55469;48.934;12.050;2024-01-15T02:01:51;-2.20;99.90
68480;DHT22;55469;48.934;12.050;2024-01-15T02:04:18;-2.20;99.90
68480;DHT22;55469;48.934;12.050;2024-01-15T02:06:44;-2.20;99.90
68480;DHT22;55469;48.934;12.050;2024-01-15T02:09:10;-2.20;99.90
68480;DHT22;55469;48.934;12.050;2024-01-15T02:11:36;-2.20;99.90
68480;DHT22;55469;48.934;12.050;2024-01-15T02:14:03;-2.20;99.90
68480;DHT22;55469;48.934;12.050;2024-01-15T02:16:28;-2.20;99.90
68480;DHT22;55469;48.934;12.050;2024-01-15T02:18:54;-2.20;99.90
68480;DHT22;55469;48.934;12.050;2024-01-15T02:21:20;-2.20;99.90
68480;DHT22;55469;48.934;12.050;2024-01-15T02:23:45;-2.20;99.90
68480;DHT22;55469;48.934;12.050;2024-01-15T02:26:11;-2.20;99.90
68480;DHT22;55469;48.934;12.050;2024-01-15T02:28:37;-2.20;99.90
68480;DHT22;55469;48.934;12.050;2024-01-15T02:31:03;-2.20;99.90
68480;DHT22;55469;48.934;12.050;2024-01-15T02:33:28;-2.20;99.90
68480;DHT22;55469;48.934;12.050;2024-01-15T02:35:54;-2.20;99.90
68480;DHT22;55469;48.934;12.050;2024-01-15T02:38:20;-2.20;99.90
68480;DHT22;55469;48.934;12.050;2024-01-15T02:40:45;-2.20;99.90
68480;DHT22;55469;48.934;12.050;2024-01-15T02:43:11;-2.20;99.90
68480;DHT22;55469;48.934;12.050;2024-01-15T02:45:38;-2.20;99.90
68480;DHT22;55469;48.934;12.050;2024-01-15T02:48:04;-2.20;99.90
68480;DHT22;55469;48.934;12.050;2024-01-15T02:50:30;-2.20;99.90
68480;DHT22;55469;48.934;12.050;2024-01-15T02:52:56;-2.20;99.90
68480;DHT22;55469;48.934;12.050;2024-01-15T02:55:21;-2.20;99.90
68480;DHT22;55469;48.934;12.050;2024-01-15T02:57:47;-2.20;99.90
68480;DHT22;55469;48.934;12.050;2024-01-15T03:00:12;-2.20;99.90
68480;DHT22;55469;48.934;12.050;2024-01-15T03:02:39;-2.20;99.90
68480;DHT22;55469;48.934;12.050;2024-01-15T03:05:07;-2.20;99.90
68480;DHT22;55469;48.934;12.050;2024-01-15T03:07:33;-2.20;99.90
68480;DHT22;55469;48.934;12.050;2024-01-15T03:09:59;-2.20;99.90
68480;DHT22;55469;48.934;12.050;2024-01-15T03:12:24;-2.20;99.90
68480;DHT22;55469;48.934;12.050;2024-01-15T03:14:50;-2.20;99.90
68480;DHT22;55469;48.934;12.050;2024-01-15T03:17:16;-2.20;99.90
68480;DHT22;55469;48.934;12.050;2024-01-15T03:19:41;-2.20;99.90
68480;DHT22;55469;48.934;12.050;2024-01-15T03:22:07;-2.20;99.90
68480;DHT22;55469;48.934;12.050;2024-01-15T03:24:34;-2.20;99.90
68480;DHT22;55469;48.934;12.050;2024-01-15T03:27:00;-2.20;99.90
68480;DHT22;55469;48.934;12.050;2024-01-15T03:29:26;-2.20;99.90
68480;DHT22;55469;48.934;12.050;2024-01-15T03:31:51;-2.20;99.90
68480;DHT22;55469;48.934;12.050;2024-01-15T03:34:17;-2.20;99.90
68480;DHT22;55469;48.934;12.050;2024-01-15T03:36:43;-2.20;99.90
68480;DHT22;55469;48.934;12.050;2024-01-15T03:39:08;-2.20;99.90
68480;DHT22;55469;48.934;12.050;2024-01-15T03:41:34;-2.20;99.90
68480;DHT22;55469;48.934;12.050;2024-01-15T03:44:00;-2.20;99.90
68480;DHT22;55469;48.934;12.050;2024-01-15T03:46:25;-2.20;99.90
68480;DHT22;55469;48.934;12.050;2024-01-15T03:48:51;-2.20;99.90
68480;DHT22;55469;48.934;12.050;2024-01-15T03:51:17;-2.20;99.90
68480;DHT22;55469;48.934;12.050;2024-01-15T03:53:43;-2.20;99.90
68480;DHT22;55469;48.934;12.050;2024-01-15T03:56:08;-2.20;99.90
68480;DHT22;55469;48.934;12.050;2024-01-15T03:58:34;-2.20;99.90
68480;DHT22;55469;48.934;12.050;2024-01-15T04:01:00;-2.20;99.90
68480;DHT22;55469;48.934;12.050;2024-01-15T04:03:25;-2.20;99.90
68480;DHT22;55469;48.934;12.050;2024-01-15T04:05:51;-2.20;99.90
68480;DHT22;55469;48.934;12.050;2024-01-15T04:08:17;-2.20;99.90
68480;DHT22;55469;48.934;12.050;2024-01-15T04:10:42;-2.20;99.90
68480;DHT22;55469;48.934;12.050;2024-01-15T04:13:08;-2.20;99.90
68480;DHT22;55469;48.934;12.050;2024-01-15T04:15:33;-2.20;99.90
68480;DHT22;55469;48.934;12.050;2024-01-15T04:17:59;-2.20;99.90
68480;DHT22;55469;48.934;12.050;2024-01-15T04:20:26;-2.20;99.90
68480;DHT22;55469;48.934;12.050;2024-01-15T04:22:52;-2.10;99.90
68480;DHT22;55469;48.934;12.050;2024-01-15T04:25:17;-2.20;99.90
68480;DHT22;55469;48.934;12.050;2024-01-15T04:27:43;-2.20;99.90
68480;DHT22;55469;48.934;12.050;2024-01-15T04:30:09;-2.20;99.90
68480;DHT22;55469;48.934;12.050;2024-01-15T04:32:35;-2.20;99.90
68480;DHT22;55469;48.934;12.050;2024-01-15T04:35:01;-2.20;99.90
68480;DHT22;55469;48.934;12.050;2024-01-15T04:37:26;-2.20;99.90
68480;DHT22;55469;48.934;12.050;2024-01-15T04:39:52;-2.10;99.90
68480;DHT22;55469;48.934;12.050;2024-01-15T04:42:23;-2.20;99.90
68480;DHT22;55469;48.934;12.050;2024-01-15T04:44:49;-2.20;99.90
68480;DHT22;55469;48.934;12.050;2024-01-15T04:47:14;-2.10;99.90
68480;DHT22;55469;48.934;12.050;2024-01-15T04:49:40;-2.10;99.90
68480;DHT22;55469;48.934;12.050;2024-01-15T04:52:06;-2.10;99.90
68480;DHT22;55469;48.934;12.050;2024-01-15T04:54:31;-2.20;99.90
68480;DHT22;55469;48.934;12.050;2024-01-15T04:56:57;-2.10;99.90
68480;DHT22;55469;48.934;12.050;2024-01-15T04:59:23;-2.10;99.90
68480;DHT22;55469;48.934;12.050;2024-01-15T05:01:48;-2.10;99.90
68480;DHT22;55469;48.934;12.050;2024-01-15T05:04:14;-2.10;99.90
68480;DHT22;55469;48.934;12.050;2024-01-15T05:06:40;-2.10;99.90
68480;DHT22;55469;48.934;12.050;2024-01-15T05:09:06;-2.20;99.90
68480;DHT22;55469;48.934;12.050;2024-01-15T05:11:32;-2.10;99.90
68480;DHT22;55469;48.934;12.050;2024-01-15T05:13:57;-2.10;99.90
68480;DHT22;55469;48.934;12.050;2024-01-15T05:16:23;-2.10;99.90
68480;DHT22;55469;48.934;12.050;2024-01-15T05:18:49;-2.10;99.90
68480;DHT22;55469;48.934;12.050;2024-01-15T05:21:14;-2.10;99.90
68480;DHT22;55469;48.934;12.050;2024-01-15T05:23:40;-2.10;99.90
68480;DHT22;55469;48.934;12.050;2024-01-15T05:26:06;-2.10;99.90
68480;DHT22;55469;48.934;12.050;2024-01-15T05:28:31;-2.10;99.90
68480;DHT22;55469;48.934;12.050;2024-01-15T05:30:57;-2.10;99.90
68480;DHT22;55469;48.934;12.050;2024-01-15T05:33:23;-2.10;99.90
68480;DHT22;55469;48.934;12.050;2024-01-15T05:35:49;-2.10;99.90
68480;DHT22;55469;48.934;12.050;2024-01-15T05:38:16;-2.10;99.90
68480;DHT22;55469;48.934;12.050;2024-01-15T05:40:42;-2.10;99.90
68480;DHT22;55469;48.934;12.050;2024-01-15T05:43:07;-2.10;99.90
68480;DHT22;55469;48.934;12.050;2024-01-15T05:45:34;-2.10;99.90
68480;DHT22;55469;48.934;12.050;2024-01-15T05:47:59;-2.10;99.90
68480;DHT22;55469;48.934;12.050;2024-01-15T05:50:25;-2.10;99.90
68480;DHT22;55469;48.934;12.050;2024-01-15T05:52:51;-2.10;99.90
68480;DHT22;55469;48.934;12.050;2024-01-15T05:55:17;-2.10;99.90
68480;DHT22;55469;48.934;12.050;2024-01-15T05:57:44;-2.10;99.90
68480;DHT22;55469;48.934;12.050;2024-01-15T06:00:10;-2.10;99.90
68480;DHT22;55469;48.934;12.050;2024-01-15T06:02:39;-2.10;99.90
68480;DHT22;55469;48.934;12.050;2024-01-15T06:05:05;-2.10;99.90
68480;DHT22;55469;48.934;12.050;2024-01-15T06:07:31;-2.10;99.90
68480;DHT22;55469;48.934;12.050;2024-01-15T06:09:59;-2.10;99.90
68480;DHT22;55469;48.934;12.050;2024-01-15T06:12:25;-2.10;99.90
68480;DHT22;55469;48.934;12.050;2024-01-15T06:14:50;-2.10;99.90
68480;DHT22;55469;48.934;12.050;2024-01-15T06:17:16;-2.10;99.90
68480;DHT22;55469;48.934;12.050;2024-01-15T06:19:42;-2.10;99.90
68480;DHT22;55469;48.934;12.050;2024-01-15T06:22:07;-2.10;99.90
68480;DHT22;55469;48.934;12.050;2024-01-15T06:24:33;-2.10;99.90
68480;DHT22;55469;48.934;12.050;2024-01-15T06:26:59;-2.10;99.90
68480;DHT22;55469;48.934;12.050;2024-01-15T06:29:25;-2.10;99.90
68480;DHT22;55469;48.934;12.050;2024-01-15T06:31:51;-2.10;99.90
68480;DHT22;55469;48.934;12.050;2024-01-15T06:34:17;-2.10;99.90
68480;DHT22;55469;48.934;12.050;2024-01-15T06:36:42;-2.10;99.90
68480;DHT22;55469;48.934;12.050;2024-01-15T06:39:08;-2.10;99.90
68480;DHT22;55469;48.934;12.050;2024-01-15T06:41:35;-2.10;99.90
68480;DHT22;55469;48.934;12.050;2024-01-15T06:44:06;-2.10;99.90
68480;DHT22;55469;48.934;12.050;2024-01-15T06:46:32;-2.10;99.90
68480;DHT22;55469;48.934;12.050;2024-01-15T06:48:58;-2.10;99.90
68480;DHT22;55469;48.934;12.050;2024-01-15T06:51:23;-2.10;99.90
68480;DHT22;55469;48.934;12.050;2024-01-15T06:53:49;-2.10;99.90
68480;DHT22;55469;48.934;12.050;2024-01-15T06:56:15;-2.10;99.90
68480;DHT22;55469;48.934;12.050;2024-01-15T06:58:40;-2.10;99.90
68480;DHT22;55469;48.934;12.050;2024-01-15T07:01:06;-2.10;99.90
68480;DHT22;55469;48.934;12.050;2024-01-15T07:03:33;-2.10;99.90
68480;DHT22;55469;48.934;12.050;2024-01-15T07:05:58;-2.10;99.90
68480;DHT22;55469;48.934;12.050;2024-01-15T07:08:24;-2.00;99.90
68480;DHT22;55469;48.934;12.050;2024-01-15T07:10:49;-2.10;99.90
68480;DHT22;55469;48.934;12.050;2024-01-15T07:13:15;-2.00;99.90
68480;DHT22;55469;48.934;12.050;2024-01-15T07:15:41;-2.10;99.90
68480;DHT22;55469;48.934;12.050;2024-01-15T07:18:06;-2.00;99.90
68480;DHT22;55469;48.934;12.050;2024-01-15T07:20:32;-2.00;99.90
68480;DHT22;55469;48.934;12.050;2024-01-15T07:22:58;-2.00;99.90
68480;DHT22;55469;48.934;12.050;2024-01-15T07:25:23;-2.00;99.90
68480;DHT22;55469;48.934;12.050;2024-01-15T07:27:51;-2.10;99.90
68480;DHT22;55469;48.934;12.050;2024-01-15T07:30:19;-2.10;99.90
68480;DHT22;55469;48.934;12.050;2024-01-15T07:32:47;-2.10;99.90
68480;DHT22;55469;48.934;12.050;2024-01-15T07:35:14;-2.00;99.90
68480;DHT22;55469;48.934;12.050;2024-01-15T07:37:40;-2.00;99.90
68480;DHT22;55469;48.934;12.050;2024-01-15T07:40:06;-2.00;99.90
68480;DHT22;55469;48.934;12.050;2024-01-15T07:42:36;-2.00;99.90
68480;DHT22;55469;48.934;12.050;2024-01-15T07:45:02;-2.00;99.90
68480;DHT22;55469;48.934;12.050;2024-01-15T07:47:27;-2.00;99.90
68480;DHT22;55469;48.934;12.050;2024-01-15T07:49:53;-2.00;99.90
68480;DHT22;55469;48.934;12.050;2024-01-15T07:52:19;-2.00;99.90
68480;DHT22;55469;48.934;12.050;2024-01-15T07:54:45;-2.00;99.90
68480;DHT22;55469;48.934;12.050;2024-01-15T07:57:10;-2.00;99.90
68480;DHT22;55469;48.934;12.050;2024-01-15T07:59:36;-2.00;99.90
68480;DHT22;55469;48.934;12.050;2024-01-15T08:02:02;-2.00;99.90
68480;DHT22;55469;48.934;12.050;2024-01-15T08:04:28;-2.00;99.90
68480;DHT22;55469;48.934;12.050;2024-01-15T08:06:53;-2.00;99.90
68480;DHT22;55469;48.934;12.050;2024-01-15T08:09:19;-2.00;99.90
68480;DHT22;55469;48.934;12.050;2024-01-15T08:11:44;-2.00;99.90
68480;DHT22;55469;48.934;12.050;2024-01-15T08:14:10;-2.00;99.90
68480;DHT22;55469;48.934;12.050;2024-01-15T08:16:37;-2.00;99.90
68480;DHT22;55469;48.934;12.050;2024-01-15T08:19:03;-2.00;99.90
68480;DHT22;55469;48.934;12.050;2024-01-15T08:21:28;-1.90;99.90
68480;DHT22;55469;48.934;12.050;2024-01-15T08:24:01;-2.00;99.90
68480;DHT22;55469;48.934;12.050;2024-01-15T08:26:30;-2.00;99.90
68480;DHT22;55469;48.934;12.050;2024-01-15T08:28:57;-2.00;99.90
68480;DHT22;55469;48.934;12.050;2024-01-15T08:31:23;-2.00;99.90
68480;DHT22;55469;48.934;12.050;2024-01-15T08:33:49;-1.90;99.90
68480;DHT22;55469;48.934;12.050;2024-01-15T08:36:15;-2.00;99.90
68480;DHT22;55469;48.934;12.050;2024-01-15T08:38:40;-2.00;99.90
68480;DHT22;55469;48.934;12.050;2024-01-15T08:41:06;-1.90;99.90
68480;DHT22;55469;48.934;12.050;2024-01-15T08:43:33;-1.90;99.90
68480;DHT22;55469;48.934;12.050;2024-01-15T08:45:59;-1.90;99.90
68480;DHT22;55469;48.934;12.050;2024-01-15T08:48:26;-1.90;99.90
68480;DHT22;55469;48.934;12.050;2024-01-15T08:50:52;-1.90;99.90
68480;DHT22;55469;48.934;12.050;2024-01-15T08:53:18;-1.90;99.90
68480;DHT22;55469;48.934;12.050;2024-01-15T08:55:44;-1.90;99.90
68480;DHT22;55469;48.934;12.050;2024-01-15T08:58:10;-1.90;99.90
68480;DHT22;55469;48.934;12.050;2024-01-15T09:00:35;-1.90;99.90
68480;DHT22;55469;48.934;12.050;2024-01-15T09:03:01;-1.90;99.90
68480;DHT22;55469;48.934;12.050;2024-01-15T09:05:27;-1.80;99.90
68480;DHT22;55469;48.934;12.050;2024-01-15T09:07:54;-1.80;99.90
68480;DHT22;55469;48.934;12.050;2024-01-15T09:10:20;-1.90;99.90
68480;DHT22;55469;48.934;12.050;2024-01-15T09:12:46;-1.80;99.90
68480;DHT22;55469;48.934;12.050;2024-01-15T09:15:11;-1.80;99.90
68480;DHT22;55469;48.934;12.050;2024-01-15T09:17:37;-1.80;99.90
68480;DHT22;55469;48.934;12.050;2024-01-15T09:20:03;-1.80;99.90
68480;DHT22;55469;48.934;12.050;2024-01-15T09:22:32;-1.80;99.90
68480;DHT22;55469;48.934;12.050;2024-01-15T09:24:58;-1.80;99.90
68480;DHT22;55469;48.934;12.050;2024-01-15T09:27:24;-1.80;99.90
68480;DHT22;55469;48.934;12.050;2024-01-15T09:29:51;-1.80;99.90
68480;DHT22;55469;48.934;12.050;2024-01-15T09:32:17;-1.80;99.90
68480;DHT22;55469;48.934;12.050;2024-01-15T09:34:43;-1.80;99.90
68480;DHT22;55469;48.934;12.050;2024-01-15T09:37:09;-1.70;99.90
68480;DHT22;55469;48.934;12.050;2024-01-15T09:39:35;-1.70;99.90
68480;DHT22;55469;48.934;12.050;2024-01-15T09:42:00;-1.70;99.90
68480;DHT22;55469;48.934;12.050;2024-01-15T09:44:27;-1.70;99.90
68480;DHT22;55469;48.934;12.050;2024-01-15T09:46:53;-1.70;99.90
68480;DHT22;55469;48.934;12.050;2024-01-15T09:49:20;-1.70;99.90
68480;DHT22;55469;48.934;12.050;2024-01-15T09:51:46;-1.70;99.90
68480;DHT22;55469;48.934;12.050;2024-01-15T09:54:12;-1.70;99.90
68480;DHT22;55469;48.934;12.050;2024-01-15T09:56:40;-1.70;99.90
68480;DHT22;55469;48.934;12.050;2024-01-15T09:59:06;-1.70;99.90
68480;DHT22;55469;48.934;12.050;2024-01-15T10:01:32;-1.70;99.90
68480;DHT22;55469;48.934;12.050;2024-01-15T10:03:57;-1.70;99.90
68480;DHT22;55469;48.934;12.050;2024-01-15T10:06:26;-1.70;99.90
68480;DHT22;55469;48.934;12.050;2024-01-15T10:08:53;-1.60;99.90
68480;DHT22;55469;48.934;12.050;2024-01-15T10:11:19;-1.60;99.90
68480;DHT22;55469;48.934;12.050;2024-01-15T10:13:45;-1.60;99.90
68480;DHT22;55469;48.934;12.050;2024-01-15T10:16:11;-1.60;99.90
68480;DHT22;55469;48.934;12.050;2024-01-15T10:18:37;-1.60;99.90
68480;DHT22;55469;48.934;12.050;2024-01-15T10:21:06;-1.60;99.90
68480;DHT22;55469;48.934;12.050;2024-01-15T10:23:32;-1.60;99.90
68480;DHT22;55469;48.934;12.050;2024-01-15T10:25:58;-1.60;99.90
68480;DHT22;55469;48.934;12.050;2024-01-15T10:28:25;-1.60;99.90
68480;DHT22;55469;48.934;12.050;2024-01-15T10:30:52;-1.60;99.90
68480;DHT22;55469;48.934;12.050;2024-01-15T10:33:21;-1.60;99.90
68480;DHT22;55469;48.934;12.050;2024-01-15T10:35:51;-1.60;99.90
68480;DHT22;55469;48.934;12.050;2024-01-15T10:38:22;-1.60;99.90
68480;DHT22;55469;48.934;12.050;2024-01-15T10:40:52;-1.50;99.90
68480;DHT22;55469;48.934;12.050;2024-01-15T10:43:18;-1.50;99.90
68480;DHT22;55469;48.934;12.050;2024-01-15T10:45:47;-1.50;99.90
68480;DHT22;55469;48.934;12.050;2024-01-15T10:48:14;-1.50;99.90
68480;DHT22;55469;48.934;12.050;2024-01-15T10:50:41;-1.50;99.90
68480;DHT22;55469;48.934;12.050;2024-01-15T10:53:07;-1.50;99.90
68480;DHT22;55469;48.934;12.050;2024-01-15T10:55:35;-1.50;99.90
68480;DHT22;55469;48.934;12.050;2024-01-15T10:58:01;-1.50;99.90
68480;DHT22;55469;48.934;12.050;2024-01-15T11:00:29;-1.50;99.90
68480;DHT22;55469;48.934;12.050;2024-01-15T11:02:54;-1.50;99.90
68480;DHT22;55469;48.934;12.050;2024-01-15T11:05:21;-1.40;99.90
68480;DHT22;55469;48.934;12.050;2024-01-15T11:07:50;-1.40;99.90
68480;DHT22;55469;48.934;12.050;2024-01-15T11:13:13;-1.40;99.90
68480;DHT22;55469;48.934;12.050;2024-01-15T11:18:39;-1.40;99.90
68480;DHT22;55469;48.934;12.050;2024-01-15T11:23:54;-1.40;99.90
68480;DHT22;55469;48.934;12.050;2024-01-15T11:32:00;-1.30;99.90
68480;DHT22;55469;48.934;12.050;2024-01-15T11:37:18;-1.30;99.90
68480;DHT22;55469;48.934;12.050;2024-01-15T11:39:44;-1.30;99.90
68480;DHT22;55469;48.934;12.050;2024-01-15T11:42:12;-1.30;99.90
68480;DHT22;55469;48.934;12.050;2024-01-15T11:44:38;-1.30;99.90
68480;DHT22;55469;48.934;12.050;2024-01-15T11:47:05;-1.30;99.90
68480;DHT22;55469;48.934;12.050;2024-01-15T11:52:16;-1.30;99.90
68480;DHT22;55469;48.934;12.050;2024-01-15T11:55:00;-1.30;99.90
68480;DHT22;55469;48.934;12.050;2024-01-15T11:57:51;-1.30;99.90
68480;DHT22;55469;48.934;12.050;2024-01-15T12:00:17;-1.20;99.90
68480;DHT22;55469;48.934;12.050;2024-01-15T12:02:44;-1.20;99.90
68480;DHT22;55469;48.934;12.050;2024-01-15T12:05:12;-1.20;99.90
68480;DHT22;55469;48.934;12.050;2024-01-15T12:07:42;-1.20;99.90
68480;DHT22;55469;48.934;12.050;2024-01-15T12:10:12;-1.20;99.90
68480;DHT22;55469;48.934;12.050;2024-01-15T12:15:27;-1.20;99.90
68480;DHT22;55469;48.934;12.050;2024-01-15T12:17:54;-1.20;99.90
68480;DHT22;55469;48.934;12.050;2024-01-15T12:20:23;-1.20;99.90
68480;DHT22;55469;48.934;12.050;2024-01-15T12:22:49;-1.20;99.90
68480;DHT22;55469;48.934;12.050;2024-01-15T12:25:14;-1.20;99.90
68480;DHT22;55469;48.934;12.050;2024-01-15T12:27:40;-1.20;99.90
68480;DHT22;55469;48.934;12.050;2024-01-15T12:30:06;-1.20;99.90
68480;DHT22;55469;48.934;12.050;2024-01-15T12:32:32;-1.20;99.90
68480;DHT22;55469;48.934;12.050;2024-01-15T12:35:00;-1.20;99.90
68480;DHT22;55469;48.934;12.050;2024-01-15T12:37:25;-1.10;99.90
68480;DHT22;55469;48.934;12.050;2024-01-15T12:39:52;-1.10;99.90
68480;DHT22;55469;48.934;12.050;2024-01-15T12:42:20;-1.10;99.90
68480;DHT22;55469;48.934;12.050;2024-01-15T12:44:46;-1.10;99.90
68480;DHT22;55469;48.934;12.050;2024-01-15T12:47:12;-1.10;99.90
68480;DHT22;55469;48.934;12.050;2024-01-15T12:49:39;-1.10;99.90
68480;DHT22;55469;48.934;12.050;2024-01-15T12:52:08;-1.10;99.90
68480;DHT22;55469;48.934;12.050;2024-01-15T12:54:34;-1.10;99.90
68480;DHT22;55469;48.934;12.050;2024-01-15T12:57:00;-1.10;99.90
68480;DHT22;55469;48.934;12.050;2024-01-15T12:59:25;-1.10;99.90
68480;DHT22;55469;48.934;12.050;2024-01-15T13:01:51;-1.10;99.90
68480;DHT22;55469;48.934;12.050;2024-01-15T13:04:23;-1.10;99.90
68480;DHT22;55469;48.934;12.050;2024-01-15T13:06:50;-1.10;99.90
68480;DHT22;55469;48.934;12.050;2024-01-15T13:09:16;-1.10;99.90
68480;DHT22;55469;48.934;12.050;2024-01-15T13:11:45;-1.10;99.90
68480;DHT22;55469;48.934;12.050;2024-01-15T13:14:11;-1.10;99.90
68480;DHT22;55469;48.934;12.050;2024-01-15T13:16:39;-1.10;99.90
68480;DHT22;55469;48.934;12.050;2024-01-15T13:19:08;-1.10;99.90
68480;DHT22;55469;48.934;12.050;2024-01-15T13:21:34;-1.10;99.90
68480;DHT22;55469;48.934;12.050;2024-01-15T13:24:00;-1.10;99.90
68480;DHT22;55469;48.934;12.050;2024-01-15T13:26:25;-1.00;99.90
68480;DHT22;55469;48.934;12.050;2024-01-15T13:28:51;-1.00;99.90
68480;DHT22;55469;48.934;12.050;2024-01-15T13:31:17;-1.00;99.90
68480;DHT22;55469;48.934;12.050;2024-01-15T13:33:42;-1.00;99.90
68480;DHT22;55469;48.934;12.050;2024-01-15T13:36:08;-1.00;99.90
68480;DHT22;55469;48.934;12.050;2024-01-15T13:38:38;-1.00;99.90
68480;DHT22;55469;48.934;12.050;2024-01-15T13:41:04;-1.00;99.90
68480;DHT22;55469;48.934;12.050;2024-01-15T13:43:31;-1.00;99.90
68480;DHT22;55469;48.934;12.050;2024-01-15T13:45:57;-1.00;99.90
68480;DHT22;55469;48.934;12.050;2024-01-15T13:48:22;-1.00;99.90
68480;DHT22;55469;48.934;12.050;2024-01-15T13:50:48;-1.00;99.90
68480;DHT22;55469;48.934;12.050;2024-01-15T13:53:16;-1.00;99.90
68480;DHT22;55469;48.934;12.050;2024-01-15T13:55:42;-1.00;99.90
68480;DHT22;55469;48.934;12.050;2024-01-15T13:58:07;-1.00;99.90
68480;DHT22;55469;48.934;12.050;2024-01-15T14:00:33;-1.00;99.90
68480;DHT22;55469;48.934;12.050;2024-01-15T14:02:59;-1.00;99.90
68480;DHT22;55469;48.934;12.050;2024-01-15T14:05:24;-1.00;99.90
68480;DHT22;55469;48.934;12.050;2024-01-15T14:07:50;-1.00;99.90
68480;DHT22;55469;48.934;12.050;2024-01-15T14:10:15;-0.90;99.90
68480;DHT22;55469;48.934;12.050;2024-01-15T14:12:41;-1.00;99.90
68480;DHT22;55469;48.934;12.050;2024-01-15T14:15:08;-0.90;99.90
68480;DHT22;55469;48.934;12.050;2024-01-15T14:17:34;-1.00;99.90
68480;DHT22;55469;48.934;12.050;2024-01-15T14:20:00;-0.90;99.90
68480;DHT22;55469;48.934;12.050;2024-01-15T14:22:25;-0.90;99.90
68480;DHT22;55469;48.934;12.050;2024-01-15T14:24:51;-0.90;99.90
68480;DHT22;55469;48.934;12.050;2024-01-15T14:27:17;-0.90;99.90
68480;DHT22;55469;48.934;12.050;2024-01-15T14:29:43;-0.90;99.90
68480;DHT22;55469;48.934;12.050;2024-01-15T14:32:08;-0.90;99.90
68480;DHT22;55469;48.934;12.050;2024-01-15T14:34:34;-0.90;99.90
68480;DHT22;55469;48.934;12.050;2024-01-15T14:37:02;-0.90;99.90
68480;DHT22;55469;48.934;12.050;2024-01-15T14:39:28;-0.90;99.90
68480;DHT22;55469;48.934;12.050;2024-01-15T14:41:53;-0.90;99.90
68480;DHT22;55469;48.934;12.050;2024-01-15T14:44:19;-0.90;99.90
68480;DHT22;55469;48.934;12.050;2024-01-15T14:46:45;-0.90;99.90
68480;DHT22;55469;48.934;12.050;2024-01-15T14:49:11;-0.90;99.90
68480;DHT22;55469;48.934;12.050;2024-01-15T14:51:36;-0.90;99.90
68480;DHT22;55469;48.934;12.050;2024-01-15T14:54:02;-0.90;99.90
68480;DHT22;55469;48.934;12.050;2024-01-15T14:56:28;-0.90;99.90
68480;DHT22;55469;48.934;12.050;2024-01-15T14:58:54;-0.90;99.90
68480;DHT22;55469;48.934;12.050;2024-01-15T15:01:20;-0.90;99.90
68480;DHT22;55469;48.934;12.050;2024-01-15T15:03:45;-0.90;99.90
68480;DHT22;55469;48.934;12.050;2024-01-15T15:06:11;-0.90;99.90
68480;DHT22;55469;48.934;12.050;2024-01-15T15:08:37;-0.90;99.90
68480;DHT22;55469;48.934;12.050;2024-01-15T15:11:03;-0.90;99.90
68480;DHT22;55469;48.934;12.050;2024-01-15T15:13:29;-0.90;99.90
68480;DHT22;55469;48.934;12.050;2024-01-15T15:15:55;-0.90;99.90
68480;DHT22;55469;48.934;12.050;2024-01-15T15:18:21;-0.90;99.90
68480;DHT22;55469;48.934;12.050;2024-01-15T15:20:49;-0.90;99.90
68480;DHT22;55469;48.934;12.050;2024-01-15T15:23:15;-0.90;99.90
68480;DHT22;55469;48.934;12.050;2024-01-15T15:25:42;-0.80;99.90
68480;DHT22;55469;48.934;12.050;2024-01-15T15:28:11;-0.90;99.90
68480;DHT22;55469;48.934;12.050;2024-01-15T15:30:37;-0.90;99.90